createdAt,value
2019-02-07T00:02:35.306Z,100436.00
2019-02-07T00:07:36.577Z,100427.00
2019-02-07T00:12:37.944Z,100430.00
2019-02-07T00:17:39.169Z,100420.00
2019-02-07T00:22:40.624Z,100418.00
2019-02-07T00:27:42.070Z,100414.00
2019-02-07T00:32:43.915Z,100400.00
2019-02-07T00:37:45.264Z,100408.00
2019-02-07T00:42:47.310Z,100396.00
2019-02-07T00:47:51.152Z,100393.00
2019-02-07T00:52:52.507Z,100377.00
2019-02-07T00:57:54.158Z,100375.00
2019-02-07T01:02:55.512Z,100362.00
2019-02-07T01:07:56.743Z,100363.00
2019-02-07T01:12:58.115Z,100353.00
2019-02-07T01:17:59.649Z,100343.00
2019-02-07T01:23:00.888Z,100324.00
2019-02-07T01:28:02.868Z,100311.00
2019-02-07T01:33:04.215Z,100320.00
2019-02-07T01:38:05.879Z,100311.00
2019-02-07T01:43:07.141Z,100309.00
2019-02-07T01:48:08.388Z,100305.00
2019-02-07T01:53:09.620Z,100308.00
2019-02-07T01:58:10.863Z,100320.00
2019-02-07T02:03:12.116Z,100318.00
2019-02-07T02:08:13.460Z,100301.00
2019-02-07T02:13:14.801Z,100293.00
2019-02-07T02:18:16.047Z,100283.00
2019-02-07T02:23:17.531Z,100288.00
2019-02-07T02:28:19.184Z,100271.00
2019-02-07T02:33:20.517Z,100250.00
2019-02-07T02:38:21.760Z,100251.00
2019-02-07T02:43:23.100Z,100238.00
2019-02-07T02:48:24.345Z,100221.00
2019-02-07T02:53:25.593Z,100210.00
2019-02-07T02:58:26.913Z,100211.00
2019-02-07T03:03:30.808Z,100199.00
2019-02-07T03:08:34.179Z,100201.00
2019-02-07T03:13:49.416Z,100191.00
2019-02-07T03:19:09.446Z,100194.00
2019-02-07T03:24:12.606Z,100205.00
2019-02-07T03:29:15.766Z,100183.00
2019-02-07T03:34:28.015Z,100164.00
2019-02-07T03:39:31.196Z,100175.00
2019-02-07T03:44:43.802Z,100161.00
2019-02-07T03:50:03.965Z,100131.00
2019-02-07T03:55:13.006Z,100139.00
2019-02-07T04:00:31.569Z,100119.00
2019-02-07T04:05:35.029Z,100109.00
2019-02-07T04:10:43.182Z,100116.00
2019-02-07T04:15:54.933Z,100122.00
2019-02-07T04:21:10.283Z,100104.00
2019-02-07T04:26:19.597Z,100134.00
2019-02-07T04:31:34.766Z,100117.00
2019-02-07T04:36:37.906Z,100112.00
2019-02-07T04:41:57.689Z,100101.00
2019-02-07T04:47:19.213Z,100096.00
2019-02-07T04:52:40.371Z,100089.00
2019-02-07T04:57:46.543Z,100096.00
2019-02-07T05:02:49.711Z,100102.00
2019-02-07T05:07:52.863Z,100085.00
2019-02-07T05:12:58.693Z,100079.00
2019-02-07T05:18:11.100Z,100082.00
2019-02-07T05:23:26.717Z,100062.00
2019-02-07T05:28:29.841Z,100053.00
2019-02-07T05:33:36.266Z,100069.00
2019-02-07T05:38:42.166Z,100060.00
2019-02-07T05:44:03.641Z,100046.00
2019-02-07T05:49:15.497Z,100025.00
2019-02-07T05:54:30.908Z,100023.00
2019-02-07T05:59:34.068Z,100028.00
2019-02-07T06:04:55.770Z,100029.00
2019-02-07T06:09:58.930Z,100019.00
2019-02-07T06:15:17.360Z,100023.00
2019-02-07T06:20:26.844Z,100008.00
2019-02-07T06:25:30.083Z,100012.00
2019-02-07T06:30:39.139Z,100009.00
2019-02-07T06:35:44.968Z,100007.00
2019-02-07T06:40:50.753Z,99992.00
2019-02-07T06:45:54.440Z,100011.00
2019-02-07T06:51:03.625Z,100014.00
2019-02-07T06:56:23.780Z,99996.00
2019-02-07T07:01:36.171Z,99999.00
2019-02-07T07:06:42.321Z,99998.00
2019-02-07T07:11:45.489Z,99994.00
2019-02-07T07:17:07.543Z,99979.00
2019-02-07T07:22:13.937Z,99987.00
2019-02-07T07:27:33.933Z,99981.00
2019-02-07T07:32:53.517Z,99984.00
2019-02-07T07:37:59.596Z,99979.00
2019-02-07T07:43:05.364Z,99969.00
2019-02-07T07:48:14.647Z,99971.00
2019-02-07T07:53:23.834Z,99974.00
2019-02-07T07:58:43.859Z,99979.00
2019-02-07T08:03:52.980Z,99961.00
2019-02-07T08:14:17.206Z,99979.00
2019-02-07T08:19:26.427Z,99965.00
2019-02-07T08:24:33.017Z,99978.00
2019-02-07T08:35:11.117Z,99964.00
2019-02-07T08:40:23.719Z,99955.00
2019-02-07T08:45:26.983Z,99960.00
2019-02-07T08:50:45.072Z,99961.00
2019-02-07T08:56:03.311Z,99959.00
2019-02-07T09:01:06.496Z,99942.00
2019-02-07T09:06:12.712Z,99939.00
2019-02-07T09:11:27.817Z,99949.00
2019-02-07T09:16:36.710Z,99951.00
2019-02-07T09:21:49.199Z,99957.00
2019-02-07T09:26:55.219Z,99944.00
2019-02-07T09:32:15.276Z,99937.00
2019-02-07T09:37:18.435Z,99951.00
2019-02-07T09:42:33.563Z,99951.00
2019-02-07T09:47:45.496Z,99939.00
2019-02-07T09:52:54.895Z,99937.00
2019-02-07T09:58:00.707Z,99928.00
2019-02-07T10:03:16.079Z,99926.00
2019-02-07T10:08:35.693Z,99935.00
2019-02-07T10:13:44.911Z,99920.00
2019-02-07T10:18:48.067Z,99932.00
2019-02-07T10:24:08.085Z,99927.00
2019-02-07T10:29:14.104Z,99932.00
2019-02-07T10:34:23.191Z,99933.00
2019-02-07T10:39:26.754Z,99937.00
2019-02-07T10:44:37.289Z,99936.00
2019-02-07T10:49:58.872Z,99935.00
2019-02-07T10:55:10.913Z,99934.00
2019-02-07T11:00:26.492Z,99930.00
2019-02-07T11:05:32.854Z,99937.00
2019-02-07T11:10:52.803Z,99909.00
2019-02-07T11:16:16.676Z,99904.00
2019-02-07T11:21:19.991Z,99907.00
2019-02-07T11:26:32.128Z,99897.00
2019-02-07T11:31:38.471Z,99898.00
2019-02-07T11:36:54.555Z,99897.00
2019-02-07T11:42:06.550Z,99899.00
2019-02-07T11:47:09.817Z,99885.00
2019-02-07T11:52:28.467Z,99875.00
2019-02-07T11:57:31.718Z,99872.00
2019-02-07T12:02:43.880Z,99868.00
2019-02-07T12:07:52.755Z,99874.00
2019-02-07T12:13:01.943Z,99888.00
2019-02-07T12:18:14.834Z,99876.00
2019-02-07T12:23:24.436Z,99865.00
2019-02-07T12:28:37.090Z,99878.00
2019-02-07T12:33:49.143Z,99868.00
2019-02-07T12:38:55.219Z,99857.00
2019-02-07T12:44:13.623Z,99856.00
2019-02-07T12:49:29.632Z,99850.00
2019-02-07T12:54:47.970Z,99840.00
2019-02-07T13:00:10.071Z,99830.00
2019-02-07T13:05:27.456Z,99826.00
2019-02-07T13:10:33.245Z,99819.00
2019-02-07T13:15:39.432Z,99827.00
2019-02-07T13:20:45.527Z,99824.00
2019-02-07T13:25:54.835Z,99828.00
2019-02-07T13:31:16.535Z,99847.00
2019-02-07T13:36:36.153Z,99852.00
2019-02-07T13:41:42.013Z,99865.00
2019-02-07T13:46:50.928Z,99856.00
2019-02-07T13:51:54.262Z,99853.00
2019-02-07T13:57:14.166Z,99861.00
2019-02-07T14:02:20.364Z,99853.00
2019-02-07T14:07:26.503Z,99866.00
2019-02-07T14:12:46.504Z,99858.00
2019-02-07T14:17:50.043Z,99873.00
2019-02-07T14:22:53.251Z,99866.00
2019-02-07T14:28:11.700Z,99883.00
2019-02-07T14:33:14.865Z,99888.00
2019-02-07T14:38:20.876Z,99889.00
2019-02-07T14:43:41.073Z,99887.00
2019-02-07T14:48:45.199Z,99894.00
2019-02-07T14:53:46.103Z,99886.00
2019-02-07T14:58:47.374Z,99879.00
2019-02-07T15:03:48.668Z,99882.00
2019-02-07T15:08:49.907Z,99877.00
2019-02-07T15:13:52.061Z,99875.00
2019-02-07T15:18:53.343Z,99877.00
2019-02-07T15:23:54.590Z,99895.00
2019-02-07T15:28:56.228Z,99889.00
2019-02-07T15:33:57.484Z,99875.00
2019-02-07T15:38:58.733Z,99884.00
2019-02-07T15:44:00.335Z,99875.00
2019-02-07T15:49:01.712Z,99872.00
2019-02-07T15:54:04.087Z,99888.00
2019-02-07T15:59:07.462Z,99896.00
2019-02-07T16:04:14.106Z,99907.00
2019-02-07T16:09:15.778Z,99897.00
2019-02-07T16:14:17.432Z,99906.00
2019-02-07T16:19:18.685Z,99920.00
2019-02-07T16:24:20.011Z,99931.00
2019-02-07T16:29:21.564Z,99933.00
2019-02-07T16:34:23.240Z,99942.00
2019-02-07T16:39:25.508Z,99941.00
2019-02-07T16:44:26.956Z,99948.00
2019-02-07T16:49:28.198Z,99951.00
2019-02-07T16:54:29.553Z,99940.00
2019-02-07T16:59:31.208Z,99942.00
2019-02-07T17:04:32.456Z,99952.00
2019-02-07T17:09:35.742Z,99961.00
2019-02-07T17:14:37.207Z,99960.00
2019-02-07T17:19:38.472Z,99961.00
2019-02-07T17:24:39.845Z,99962.00
2019-02-07T17:29:44.083Z,99964.00
2019-02-07T17:34:45.318Z,99968.00
2019-02-07T17:39:46.684Z,99968.00
2019-02-07T17:44:48.168Z,99969.00
2019-02-07T17:49:49.462Z,99974.00
2019-02-07T17:54:52.645Z,99970.00
2019-02-07T17:59:54.114Z,99981.00
2019-02-07T18:04:55.470Z,99974.00
2019-02-07T18:09:57.269Z,99965.00
2019-02-07T18:14:58.539Z,99983.00
2019-02-07T18:19:59.819Z,99976.00
2019-02-07T18:25:01.236Z,99980.00
2019-02-07T18:30:13.966Z,99992.00
2019-02-07T18:35:17.150Z,99992.00
2019-02-07T18:40:28.014Z,99992.00
2019-02-07T18:45:29.409Z,100004.00
2019-02-07T18:50:35.379Z,100013.00
2019-02-07T18:55:36.628Z,100003.00
2019-02-07T19:00:38.109Z,100011.00
2019-02-07T19:05:39.379Z,100016.00
2019-02-07T19:10:41.267Z,100035.00
2019-02-07T19:15:50.625Z,100034.00
2019-02-07T19:20:51.908Z,100039.00
2019-02-07T19:25:53.556Z,100040.00
2019-02-07T19:30:54.805Z,100047.00
2019-02-07T19:35:56.027Z,100045.00
2019-02-07T19:40:57.253Z,100053.00
2019-02-07T19:45:58.486Z,100062.00
2019-02-07T19:50:59.745Z,100067.00
2019-02-07T19:56:01.176Z,100073.00
2019-02-07T20:01:04.099Z,100083.00
2019-02-07T20:06:05.520Z,100091.00
2019-02-07T20:11:06.933Z,100095.00
2019-02-07T20:16:08.594Z,100094.00
2019-02-07T20:21:09.985Z,100102.00
2019-02-07T20:26:11.343Z,100100.00
2019-02-07T20:31:12.600Z,100098.00
2019-02-07T20:36:13.871Z,100102.00
2019-02-07T20:41:15.139Z,100109.00
2019-02-07T20:46:16.419Z,100104.00
2019-02-07T20:51:17.829Z,100109.00
2019-02-07T20:56:19.523Z,100106.00
2019-02-07T21:01:21.076Z,100111.00
2019-02-07T21:06:22.846Z,100117.00
2019-02-07T21:11:24.330Z,100121.00
2019-02-07T21:16:26.001Z,100116.00
2019-02-07T21:21:27.962Z,100110.00
2019-02-07T21:26:29.320Z,100121.00
2019-02-07T21:31:30.787Z,100131.00
2019-02-07T21:36:32.558Z,100141.00
2019-02-07T21:41:34.007Z,100140.00
2019-02-07T21:46:35.352Z,100149.00
2019-02-07T21:51:36.693Z,100162.00
2019-02-07T21:56:37.931Z,100167.00
2019-02-07T22:01:39.226Z,100170.00
2019-02-07T22:06:40.539Z,100175.00
2019-02-07T22:11:41.824Z,100182.00
2019-02-07T22:16:43.090Z,100177.00
2019-02-07T22:21:44.363Z,100184.00
2019-02-07T22:26:45.605Z,100197.00
2019-02-07T22:31:46.858Z,100198.00
2019-02-07T22:36:48.104Z,100196.00
2019-02-07T22:41:49.349Z,100206.00
2019-02-07T22:46:51.052Z,100205.00
2019-02-07T22:51:52.306Z,100206.00
2019-02-07T22:56:53.596Z,100200.00
2019-02-07T23:01:55.562Z,100212.00
2019-02-07T23:06:56.842Z,100211.00
2019-02-07T23:11:58.074Z,100221.00
2019-02-07T23:16:59.428Z,100231.00
2019-02-07T23:22:00.944Z,100240.00
2019-02-07T23:27:03.626Z,100233.00
2019-02-07T23:32:04.890Z,100234.00
2019-02-07T23:37:06.230Z,100228.00
2019-02-07T23:42:07.688Z,100230.00
2019-02-07T23:47:09.024Z,100233.00
2019-02-07T23:52:10.286Z,100254.00
2019-02-07T23:57:11.614Z,100261.00
